createdAt,value
2023-04-13T00:01:14.185Z,65556.66
2023-04-13T00:03:42.788Z,65556.66
2023-04-13T00:06:11.610Z,65556.66
2023-04-13T00:09:05.235Z,65556.66
2023-04-13T00:11:33.817Z,65556.66
2023-04-13T00:14:03.661Z,65556.66
2023-04-13T00:16:32.815Z,65556.66
2023-04-13T00:19:02.196Z,65556.66
2023-04-13T00:21:30.589Z,65556.66
2023-04-13T00:23:59.383Z,65556.66
2023-04-13T00:26:28.894Z,65556.66
2023-04-13T00:28:57.362Z,65556.66
2023-04-13T00:31:27.524Z,65556.66
2023-04-13T00:33:56.443Z,65556.66
2023-04-13T00:36:25.514Z,65556.66
2023-04-13T00:38:54.556Z,65556.66
2023-04-13T00:41:23.041Z,65556.66
2023-04-13T00:43:52.596Z,65556.66
2023-04-13T00:46:22.563Z,65556.66
2023-04-13T00:49:18.683Z,65556.66
2023-04-13T00:51:47.897Z,65556.66
2023-04-13T00:54:18.196Z,65556.66
2023-04-13T00:56:47.000Z,65556.66
2023-04-13T00:59:17.331Z,65556.66
2023-04-13T01:01:50.811Z,65556.66
2023-04-13T01:04:21.174Z,65556.66
2023-04-13T01:07:02.174Z,65556.66
2023-04-13T01:09:41.108Z,65556.66
2023-04-13T01:12:19.799Z,65556.66
2023-04-13T01:14:58.949Z,65556.66
2023-04-13T01:17:32.112Z,65556.66
2023-04-13T01:20:12.003Z,65556.66
2023-04-13T01:22:45.668Z,65556.66
2023-04-13T01:25:34.378Z,65556.66
2023-04-13T01:28:07.517Z,65556.66
2023-04-13T01:30:37.616Z,65556.66
2023-04-13T01:33:07.686Z,65556.66
2023-04-13T01:35:37.075Z,65556.66
2023-04-13T01:38:06.895Z,65556.66
2023-04-13T01:40:40.746Z,65556.66
2023-04-13T01:43:36.163Z,65556.66
2023-04-13T01:46:11.357Z,65556.66
2023-04-13T01:48:48.358Z,65556.66
2023-04-13T01:51:20.894Z,65556.66
2023-04-13T01:54:16.360Z,65556.66
2023-04-13T01:56:45.900Z,65556.66
2023-04-13T01:59:17.317Z,65556.66
2023-04-13T02:01:46.610Z,65556.66
2023-04-13T02:04:15.606Z,65556.66
2023-04-13T02:06:44.219Z,65556.66
2023-04-13T02:09:12.727Z,65556.66
2023-04-13T02:11:41.205Z,65556.66
2023-04-13T02:14:09.685Z,65556.66
2023-04-13T02:16:39.920Z,65556.66
2023-04-13T02:19:08.521Z,65556.66
2023-04-13T02:21:36.989Z,65556.66
2023-04-13T02:24:05.920Z,65556.66
2023-04-13T02:26:34.472Z,65556.66
2023-04-13T02:29:02.917Z,65556.66
2023-04-13T02:31:31.972Z,65556.66
2023-04-13T02:34:27.654Z,65556.66
2023-04-13T02:36:56.206Z,65556.66
2023-04-13T02:39:50.088Z,65556.66
2023-04-13T02:42:18.605Z,65556.66
2023-04-13T02:44:47.027Z,65556.66
2023-04-13T02:47:15.466Z,65556.66
2023-04-13T02:49:47.571Z,65556.66
2023-04-13T02:52:16.655Z,65556.66
2023-04-13T02:54:46.742Z,65556.66
2023-04-13T02:57:15.244Z,65556.66
2023-04-13T02:59:43.690Z,65556.66
2023-04-13T03:02:12.671Z,65556.66
2023-04-13T03:04:41.491Z,65556.66
2023-04-13T03:07:14.606Z,65556.66
2023-04-13T03:09:44.801Z,65556.66
2023-04-13T03:12:13.250Z,65556.66
2023-04-13T03:15:11.177Z,65556.66
2023-04-13T03:18:08.888Z,65556.66
2023-04-13T03:20:37.317Z,65556.66
2023-04-13T03:23:07.191Z,65556.66
2023-04-13T03:25:35.699Z,65556.66
2023-04-13T03:28:04.359Z,65556.66
2023-04-13T03:30:32.903Z,65556.66
2023-04-13T03:33:01.501Z,65556.66
2023-04-13T03:35:30.269Z,65556.66
2023-04-13T03:37:58.853Z,65556.66
2023-04-13T03:40:28.806Z,65556.66
2023-04-13T03:42:57.299Z,65556.66
2023-04-13T03:45:25.971Z,65556.66
2023-04-13T03:47:54.460Z,65556.66
2023-04-13T03:50:22.952Z,65556.66
2023-04-13T03:52:51.431Z,65556.66
2023-04-13T03:55:19.914Z,65556.66
2023-04-13T03:57:49.903Z,65556.66
2023-04-13T04:00:19.263Z,65556.66
2023-04-13T04:05:58.819Z,65556.66
2023-04-13T04:08:27.782Z,65556.66
2023-04-13T04:10:56.443Z,65556.66
2023-04-13T04:13:26.319Z,65556.66
2023-04-13T04:15:56.398Z,65556.66
2023-04-13T04:18:24.958Z,65556.66
2023-04-13T04:20:54.542Z,65556.66
2023-04-13T04:23:23.230Z,65556.66
2023-04-13T04:25:54.831Z,65556.66
2023-04-13T04:28:23.292Z,65556.66
2023-04-13T04:30:55.329Z,65556.66
2023-04-13T04:33:24.119Z,65556.66
2023-04-13T04:35:54.176Z,65556.66
2023-04-13T04:38:23.717Z,65556.66
2023-04-13T04:40:57.540Z,65556.66
2023-04-13T04:43:27.264Z,65556.66
2023-04-13T04:45:58.725Z,65556.66
2023-04-13T04:48:31.753Z,65556.66
2023-04-13T04:51:00.352Z,65556.66
2023-04-13T04:53:28.884Z,65556.66
2023-04-13T04:55:57.346Z,65556.66
2023-04-13T04:58:25.947Z,65556.66
2023-04-13T05:00:56.781Z,65556.66
2023-04-13T05:03:26.716Z,65556.66
2023-04-13T05:05:55.218Z,65556.66
2023-04-13T05:08:23.642Z,65556.66
2023-04-13T05:10:52.120Z,65556.66
2023-04-13T05:13:21.089Z,65556.66
2023-04-13T05:15:49.549Z,65556.66
2023-04-13T05:18:18.473Z,65556.66
2023-04-13T05:20:48.288Z,65556.66
2023-04-13T05:23:17.007Z,65556.66
2023-04-13T05:25:45.461Z,65556.66
2023-04-13T05:28:13.901Z,65556.66
2023-04-13T05:30:42.348Z,65556.66
2023-04-13T05:33:12.161Z,65556.66
2023-04-13T05:35:40.647Z,65556.66
2023-04-13T05:38:10.668Z,65556.66
2023-04-13T05:40:39.414Z,65556.66
2023-04-13T05:43:07.887Z,65556.66
2023-04-13T05:45:36.397Z,65556.66
2023-04-13T05:48:05.673Z,65556.66
2023-04-13T05:50:34.183Z,65556.66
2023-04-13T05:53:02.895Z,65556.66
2023-04-13T05:55:33.973Z,65556.66
2023-04-13T05:58:03.881Z,65556.66
2023-04-13T06:00:32.590Z,65556.66
2023-04-13T06:03:01.673Z,65556.66
2023-04-13T06:05:32.622Z,65556.66
2023-04-13T06:08:01.119Z,65556.66
2023-04-13T06:10:29.705Z,65556.66
2023-04-13T06:12:59.571Z,65556.66
2023-04-13T06:15:28.051Z,65556.66
2023-04-13T06:17:56.590Z,65556.66
2023-04-13T06:20:25.334Z,65556.66
2023-04-13T06:22:53.890Z,65556.66
2023-04-13T06:25:22.500Z,65556.66
2023-04-13T06:27:51.002Z,65556.66
2023-04-13T06:30:20.956Z,65556.66
2023-04-13T06:32:49.526Z,65556.66
2023-04-13T06:35:18.227Z,65556.66
2023-04-13T06:37:47.362Z,65556.66
2023-04-13T06:40:16.413Z,65556.66
2023-04-13T06:42:45.012Z,65556.66
2023-04-13T06:45:14.590Z,65556.66
2023-04-13T06:47:44.644Z,65556.66
2023-04-13T06:50:15.637Z,65556.66
2023-04-13T06:52:45.622Z,65556.66
2023-04-13T06:55:15.001Z,65556.66
2023-04-13T06:57:43.549Z,65556.66
2023-04-13T07:00:28.396Z,65556.66
2023-04-13T07:03:00.768Z,65556.66
2023-04-13T07:05:29.491Z,65556.66
2023-04-13T07:08:01.185Z,65556.66
2023-04-13T07:10:29.640Z,65556.66
2023-04-13T07:12:58.065Z,65556.66
2023-04-13T07:15:26.504Z,65556.66
2023-04-13T07:17:56.059Z,65556.66
2023-04-13T07:20:26.184Z,65556.66
2023-04-13T07:22:54.677Z,65556.66
2023-04-13T07:37:23.186Z,93653.63
2023-04-13T07:39:51.719Z,93665.63
2023-04-13T07:42:20.187Z,93663.66
2023-04-13T07:44:48.650Z,93656.25
2023-04-13T07:47:17.074Z,93661.75
2023-04-13T07:49:45.877Z,93655.53
2023-04-13T07:52:14.796Z,93657.13
2023-04-13T07:54:44.585Z,93653.63
2023-04-13T07:57:13.044Z,93651.63
2023-04-13T07:59:41.635Z,93647.91
2023-04-13T08:02:10.175Z,93649.19
2023-04-13T08:04:38.865Z,93652.09
2023-04-13T08:07:07.663Z,93647.97
2023-04-13T08:09:37.276Z,93649.94
2023-04-13T08:12:08.271Z,93631.00
2023-04-13T08:14:36.745Z,93629.88
2023-04-13T08:17:06.105Z,93634.69
2023-04-13T08:19:35.452Z,93633.19
2023-04-13T08:22:04.379Z,93631.72
2023-04-13T08:24:32.864Z,93619.00
2023-04-13T08:27:01.315Z,93629.16
2023-04-13T08:29:31.551Z,93620.84
2023-04-13T08:32:00.374Z,93622.63
2023-04-13T08:34:28.871Z,93617.72
2023-04-13T08:36:58.650Z,93614.25
2023-04-13T08:39:27.412Z,93607.75
2023-04-13T08:41:56.849Z,93614.31
2023-04-13T08:44:25.981Z,93603.56
2023-04-13T08:46:56.122Z,93601.13
2023-04-13T08:49:26.342Z,93599.28
2023-04-13T08:51:59.963Z,93598.56
2023-04-13T08:54:29.319Z,93592.34
2023-04-13T08:57:13.659Z,93601.31
2023-04-13T08:59:44.838Z,93588.34
2023-04-13T09:02:15.905Z,93581.88
2023-04-13T09:04:46.143Z,93574.59
2023-04-13T09:07:26.723Z,93580.22
2023-04-13T09:09:59.168Z,93571.34
2023-04-13T09:12:29.120Z,93566.06
2023-04-13T09:14:57.695Z,93566.81
2023-04-13T09:17:30.644Z,93562.88
2023-04-13T09:20:13.437Z,93575.81
2023-04-13T09:22:42.700Z,93571.50
2023-04-13T09:25:22.636Z,93558.09
2023-04-13T09:27:53.294Z,93564.88
2023-04-13T09:30:32.979Z,93561.75
2023-04-13T09:33:07.636Z,93557.22
2023-04-13T09:35:37.188Z,93538.94
2023-04-13T09:38:07.324Z,93540.66
2023-04-13T09:40:54.512Z,93534.25
2023-04-13T09:43:23.040Z,93534.69
2023-04-13T09:45:57.384Z,93539.50
2023-04-13T09:48:27.265Z,93536.81
2023-04-13T09:51:05.381Z,93535.19
2023-04-13T09:53:43.616Z,93527.88
2023-04-13T09:56:12.254Z,93516.03
2023-04-13T09:58:45.669Z,93515.88
2023-04-13T10:01:15.256Z,93502.38
2023-04-13T10:03:45.877Z,93509.56
2023-04-13T10:06:14.722Z,93525.84
2023-04-13T10:08:43.800Z,93514.09
2023-04-13T10:11:14.721Z,93513.81
2023-04-13T10:13:52.027Z,93507.84
2023-04-13T10:17:12.904Z,93504.72
2023-04-13T10:19:48.715Z,93489.06
2023-04-13T10:22:20.228Z,93492.00
2023-04-13T10:24:49.040Z,93491.47
2023-04-13T10:27:20.753Z,93487.56
2023-04-13T10:29:50.142Z,93499.19
2023-04-13T10:32:25.705Z,93498.38
2023-04-13T10:34:56.989Z,93493.28
2023-04-13T10:37:29.016Z,93489.31
2023-04-13T10:40:06.413Z,93488.63
2023-04-13T10:42:56.892Z,93479.06
2023-04-13T10:45:27.446Z,93471.19
2023-04-13T10:47:58.501Z,93474.16
2023-04-13T10:50:28.811Z,93472.88
2023-04-13T10:53:04.808Z,93480.38
2023-04-13T10:55:34.720Z,93481.22
2023-04-13T10:58:15.847Z,93465.94
2023-04-13T11:00:47.348Z,93462.69
2023-04-13T11:03:17.915Z,93458.63
2023-04-13T11:05:48.620Z,93455.19
2023-04-13T11:08:21.957Z,93447.91
2023-04-13T11:10:54.542Z,93447.16
2023-04-13T11:13:25.157Z,93445.03
2023-04-13T11:16:02.509Z,93439.22
2023-04-13T11:18:31.074Z,93444.91
2023-04-13T11:21:26.627Z,93442.50
2023-04-13T11:23:56.111Z,93444.63
2023-04-13T11:26:34.969Z,93430.19
2023-04-13T11:29:25.201Z,93437.88
2023-04-13T11:31:53.700Z,93435.41
2023-04-13T11:34:28.515Z,93432.41
2023-04-13T11:37:05.597Z,93425.03
2023-04-13T11:39:43.882Z,93427.06
2023-04-13T11:42:14.360Z,93420.41
2023-04-13T11:44:52.216Z,93431.50
2023-04-13T11:47:21.830Z,93436.84
2023-04-13T11:49:50.536Z,93424.84
2023-04-13T11:52:20.753Z,93425.81
2023-04-13T11:54:51.043Z,93429.72
2023-04-13T11:57:19.600Z,93431.41
2023-04-13T11:59:48.999Z,93428.13
2023-04-13T12:02:29.447Z,93417.78
2023-04-13T12:04:59.043Z,93415.47
2023-04-13T12:07:29.232Z,93408.56
2023-04-13T12:09:59.490Z,93402.78
2023-04-13T12:12:51.488Z,93414.88
2023-04-13T12:15:40.971Z,93402.31
2023-04-13T12:18:17.559Z,93395.22
2023-04-13T12:20:48.822Z,93397.97
2023-04-13T12:23:41.261Z,93395.56
2023-04-13T12:26:33.196Z,93394.66
2023-04-13T12:28:59.679Z,93383.03
2023-04-13T12:31:35.929Z,93382.78
2023-04-13T12:34:05.274Z,93376.97
2023-04-13T12:36:36.213Z,93373.13
2023-04-13T12:39:09.156Z,93367.41
2023-04-13T12:41:38.033Z,93364.16
2023-04-13T12:44:16.050Z,93363.72
2023-04-13T12:46:44.888Z,93371.09
2023-04-13T12:49:13.388Z,93361.56
2023-04-13T12:51:41.830Z,93356.38
2023-04-13T12:54:13.398Z,93345.38
2023-04-13T12:56:42.027Z,93349.38
2023-04-13T12:59:10.522Z,93336.72
2023-04-13T13:01:38.949Z,93337.38
2023-04-13T13:04:07.805Z,93354.78
2023-04-13T13:06:36.299Z,93337.63
2023-04-13T13:09:05.690Z,93326.34
2023-04-13T13:11:35.902Z,93324.97
2023-04-13T13:14:04.354Z,93325.94
2023-04-13T13:16:33.169Z,93315.38
2023-04-13T13:19:02.569Z,93324.47
2023-04-13T13:21:41.085Z,93304.84
2023-04-13T13:24:10.400Z,93306.97
2023-04-13T13:29:14.364Z,93302.78
2023-04-13T13:31:42.817Z,93290.94
2023-04-13T13:34:11.536Z,93307.16
2023-04-13T13:36:39.959Z,93296.69
2023-04-13T13:39:08.610Z,93295.50
2023-04-13T13:41:37.088Z,93283.91
2023-04-13T13:44:06.957Z,93286.31
2023-04-13T13:46:36.577Z,93279.59
2023-04-13T13:49:05.250Z,93278.84
2023-04-13T13:51:34.421Z,93281.34
2023-04-13T13:54:27.554Z,93276.34
2023-04-13T13:56:56.393Z,93277.13
2023-04-13T13:59:26.471Z,93274.47
2023-04-13T14:02:01.327Z,93286.31
2023-04-13T14:04:29.913Z,93274.97
2023-04-13T14:06:58.411Z,93271.19
2023-04-13T14:09:51.526Z,93261.13
2023-04-13T14:12:20.016Z,93259.03
2023-04-13T14:14:49.933Z,93260.72
2023-04-13T14:18:02.425Z,93257.25
2023-04-13T14:20:40.391Z,93267.13
2023-04-13T14:23:10.091Z,93255.16
2023-04-13T14:25:41.220Z,93264.13
2023-04-13T14:28:11.138Z,93259.16
2023-04-13T14:31:06.531Z,93252.50
2023-04-13T14:33:35.340Z,93254.75
2023-04-13T14:36:03.950Z,93259.09
2023-04-13T14:38:33.598Z,93266.78
2023-04-13T14:41:02.046Z,93265.06
2023-04-13T14:43:30.793Z,93269.19
2023-04-13T14:46:27.755Z,93275.47
2023-04-13T14:48:56.258Z,93279.00
2023-04-13T14:51:24.713Z,93280.50
2023-04-13T14:53:56.355Z,93276.97
2023-04-13T14:56:26.172Z,93277.41
2023-04-13T14:58:54.676Z,93278.38
2023-04-13T15:01:24.835Z,93279.28
2023-04-13T15:03:55.377Z,93278.88
2023-04-13T15:06:25.327Z,93276.44
2023-04-13T15:08:54.282Z,93286.44
2023-04-13T15:11:23.040Z,93283.03
2023-04-13T15:13:51.445Z,93280.03
2023-04-13T15:16:19.899Z,93288.66
2023-04-13T15:18:48.456Z,93294.50
2023-04-13T15:21:18.396Z,93282.53
2023-04-13T15:23:47.422Z,93292.06
2023-04-13T15:26:19.278Z,93291.09
2023-04-13T15:28:48.375Z,93293.53
2023-04-13T15:31:16.893Z,93301.34
2023-04-13T15:33:45.407Z,93284.72
2023-04-13T15:36:19.147Z,93294.16
2023-04-13T15:38:47.591Z,93298.25
2023-04-13T15:41:16.197Z,93310.56
2023-04-13T15:44:09.531Z,93308.25
2023-04-13T15:46:38.465Z,93297.72
2023-04-13T15:49:07.064Z,93289.25
2023-04-13T15:51:40.883Z,93284.47
2023-04-13T15:54:09.477Z,93286.03
2023-04-13T15:56:37.932Z,93285.66
2023-04-13T15:59:06.366Z,93282.78
2023-04-13T16:01:46.828Z,93278.47
2023-04-13T16:04:16.235Z,93291.22
2023-04-13T16:06:46.254Z,93283.34
2023-04-13T16:09:14.706Z,93287.97
2023-04-13T16:11:43.267Z,93291.31
2023-04-13T16:14:11.632Z,93292.66
2023-04-13T16:16:46.955Z,93288.03
2023-04-13T16:19:18.144Z,93291.25
2023-04-13T16:21:50.918Z,93271.84
2023-04-13T16:24:21.091Z,93293.38
2023-04-13T16:26:50.178Z,93299.38
2023-04-13T16:29:18.951Z,93297.59
2023-04-13T16:31:48.245Z,93292.06
2023-04-13T16:34:27.923Z,93292.19
2023-04-13T16:36:58.377Z,93287.31
2023-04-13T16:39:26.861Z,93299.38
2023-04-13T16:41:55.573Z,93302.44
2023-04-13T16:44:24.007Z,93298.97
2023-04-13T16:46:52.538Z,93299.38
2023-04-13T16:49:21.098Z,93302.66
2023-04-13T16:51:49.631Z,93307.91
2023-04-13T16:54:21.133Z,93309.88
2023-04-13T16:57:10.294Z,93302.19
2023-04-13T16:59:38.811Z,93319.72
2023-04-13T17:02:13.249Z,93307.31
2023-04-13T17:04:48.585Z,93315.06
2023-04-13T17:07:17.021Z,93313.75
2023-04-13T17:09:46.873Z,93319.44
2023-04-13T17:12:15.422Z,93320.09
2023-04-13T17:14:43.994Z,93316.34
2023-04-13T17:17:13.015Z,93313.84
2023-04-13T17:19:41.495Z,93314.19
2023-04-13T17:22:09.999Z,93320.28
2023-04-13T17:24:38.516Z,93317.47
2023-04-13T17:27:08.333Z,93328.25
2023-04-13T17:29:37.964Z,93327.63
2023-04-13T17:32:07.438Z,93324.84
2023-04-13T17:34:35.937Z,93331.09
2023-04-13T17:37:05.135Z,93345.88
2023-04-13T17:39:35.098Z,93350.25
2023-04-13T17:42:03.725Z,93360.06
2023-04-13T17:44:48.874Z,93350.28
2023-04-13T17:47:18.286Z,93357.28
2023-04-13T17:49:46.788Z,93357.91
2023-04-13T17:52:15.226Z,93364.59
2023-04-13T17:54:43.918Z,93359.63
2023-04-13T17:57:12.376Z,93373.53
2023-04-13T18:00:08.335Z,93375.25
2023-04-13T18:02:39.273Z,93370.56
2023-04-13T18:05:15.206Z,93381.78
2023-04-13T18:08:08.918Z,93378.53
2023-04-13T18:10:37.328Z,93369.97
2023-04-13T18:13:05.811Z,93386.50
2023-04-13T18:15:35.941Z,93378.84
2023-04-13T18:18:04.618Z,93386.22
2023-04-13T18:20:33.157Z,93389.47
2023-04-13T18:23:01.610Z,93393.38
2023-04-13T18:25:30.112Z,93387.16
2023-04-13T18:27:58.610Z,93396.81
2023-04-13T18:30:27.389Z,93393.38
2023-04-13T18:32:57.376Z,93398.38
2023-04-13T18:35:26.116Z,93405.22
2023-04-13T18:37:54.806Z,93405.53
2023-04-13T18:40:23.626Z,93401.19
2023-04-13T18:42:52.017Z,93407.88
2023-04-13T18:45:20.885Z,93417.03
2023-04-13T18:47:49.393Z,93406.28
2023-04-13T18:50:19.404Z,93414.66
2023-04-13T18:52:47.984Z,93414.19
2023-04-13T18:55:16.695Z,93413.06
2023-04-13T18:58:09.690Z,93412.00
2023-04-13T19:00:38.280Z,93417.97
2023-04-13T19:03:06.863Z,93426.69
2023-04-13T19:05:37.238Z,93432.16
2023-04-13T19:08:09.872Z,93437.75
2023-04-13T19:10:38.395Z,93445.69
2023-04-13T19:13:06.838Z,93436.50
2023-04-13T19:15:35.817Z,93428.69
2023-04-13T19:18:06.152Z,93440.97
2023-04-13T19:20:36.823Z,93445.03
2023-04-13T19:23:05.350Z,93444.84
2023-04-13T19:25:33.848Z,93448.56
2023-04-13T19:28:02.675Z,93454.66
2023-04-13T19:30:31.153Z,93454.16
2023-04-13T19:33:00.182Z,93447.63
2023-04-13T19:35:30.021Z,93452.75
2023-04-13T19:37:59.840Z,93454.16
2023-04-13T19:40:28.475Z,93448.53
2023-04-13T19:42:56.902Z,93448.97
2023-04-13T19:45:25.526Z,93437.44
2023-04-13T19:47:53.994Z,93450.03
2023-04-13T19:50:22.477Z,93440.97
2023-04-13T19:52:52.865Z,93449.97
2023-04-13T19:55:23.159Z,93445.63
2023-04-13T19:57:51.693Z,93444.84
2023-04-13T20:00:29.614Z,93448.06
2023-04-13T20:03:03.158Z,93438.38
2023-04-13T20:05:32.142Z,93438.50
2023-04-13T20:08:00.789Z,93445.44
2023-04-13T20:10:31.690Z,93444.91
2023-04-13T20:13:00.174Z,93444.56
2023-04-13T20:15:53.835Z,93444.66
2023-04-13T20:18:22.376Z,93436.84
2023-04-13T20:20:51.293Z,93437.59
2023-04-13T20:23:19.738Z,93432.50
2023-04-13T20:25:49.573Z,93443.69
2023-04-13T20:28:18.068Z,93445.16
2023-04-13T20:30:46.541Z,93446.84
2023-04-13T20:33:14.970Z,93450.19
2023-04-13T20:35:43.420Z,93459.25
2023-04-13T20:38:13.868Z,93448.81
2023-04-13T20:40:45.855Z,93454.88
2023-04-13T20:43:17.677Z,93467.22
2023-04-13T20:45:46.295Z,93470.41
2023-04-13T20:50:48.208Z,93465.78
2023-04-13T20:53:17.658Z,93467.06
2023-04-13T20:55:48.281Z,93464.78
2023-04-13T20:58:18.239Z,93466.75
2023-04-13T21:00:48.355Z,93465.41
2023-04-13T21:03:17.142Z,93463.81
2023-04-13T21:05:45.656Z,93460.28
2023-04-13T21:08:14.130Z,93469.47
2023-04-13T21:10:43.648Z,93450.25
2023-04-13T21:13:12.126Z,93464.19
2023-04-13T21:15:42.055Z,93467.47
2023-04-13T21:18:10.721Z,93468.78
2023-04-13T21:20:40.766Z,93464.69
2023-04-13T21:23:09.190Z,93467.69
2023-04-13T21:25:38.071Z,93471.25
2023-04-13T21:28:06.702Z,93468.47
2023-04-13T21:30:35.186Z,93478.31
2023-04-13T21:33:05.142Z,93463.00
2023-04-13T21:35:33.677Z,93463.13
2023-04-13T21:38:04.998Z,93461.59
2023-04-13T21:40:35.793Z,93464.09
2023-04-13T21:43:04.563Z,93462.13
2023-04-13T21:45:33.621Z,93455.91
2023-04-13T21:48:02.061Z,93458.47
2023-04-13T21:50:31.894Z,93456.84
2023-04-13T21:53:00.369Z,93463.22
2023-04-13T21:55:28.815Z,93463.88
2023-04-13T21:57:57.699Z,93449.34
2023-04-13T22:00:26.583Z,93458.91
2023-04-13T22:02:55.604Z,93460.22
2023-04-13T22:05:24.326Z,93469.03
2023-04-13T22:07:54.184Z,93462.41
2023-04-13T22:10:22.927Z,93450.22
2023-04-13T22:12:51.492Z,93459.59
2023-04-13T22:15:20.065Z,93451.56
2023-04-13T22:17:49.039Z,93459.19
2023-04-13T22:20:17.862Z,93448.72
2023-04-13T22:22:46.404Z,93453.47
2023-04-13T22:25:16.434Z,93444.88
2023-04-13T22:27:45.113Z,93442.97
2023-04-13T22:30:14.487Z,93436.94
2023-04-13T22:32:42.976Z,93444.88
2023-04-13T22:35:12.254Z,93442.75
2023-04-13T22:37:40.693Z,93455.75
2023-04-13T22:40:10.452Z,93460.81
2023-04-13T22:42:40.520Z,93462.22
2023-04-13T22:45:21.502Z,93456.03
2023-04-13T22:47:54.608Z,93449.63
2023-04-13T22:50:41.879Z,93462.38
2023-04-13T22:53:10.342Z,93455.03
2023-04-13T22:55:38.806Z,93449.28
2023-04-13T22:58:08.624Z,93459.72
2023-04-13T23:00:37.056Z,93455.16
2023-04-13T23:03:05.946Z,93452.03
2023-04-13T23:05:35.402Z,93459.06
2023-04-13T23:08:03.829Z,93449.41
2023-04-13T23:10:32.734Z,93454.38
2023-04-13T23:13:01.263Z,93448.50
2023-04-13T23:15:31.039Z,93448.28
2023-04-13T23:18:02.525Z,93443.50
2023-04-13T23:20:31.818Z,93455.59
2023-04-13T23:23:00.513Z,93434.44
2023-04-13T23:25:29.001Z,93430.50
2023-04-13T23:27:57.425Z,93435.84
2023-04-13T23:30:25.866Z,93430.81
2023-04-13T23:32:55.756Z,93422.34
2023-04-13T23:35:24.322Z,93430.59
2023-04-13T23:37:52.758Z,93427.59
2023-04-13T23:40:21.344Z,93437.97
2023-04-13T23:42:49.823Z,93426.03
2023-04-13T23:45:18.438Z,93426.56
2023-04-13T23:47:46.957Z,93421.22
2023-04-13T23:50:17.992Z,93429.03
2023-04-13T23:52:46.704Z,93418.16
2023-04-13T23:55:15.316Z,93418.28
2023-04-13T23:57:43.813Z,93434.63
